sensor_id;sensor_type;location;lat;lon;timestamp;P1;durP1;ratioP1;P2;durP2;ratioP2
40867;SDS011;26586;50.708;22.412;2023-02-10T00:01:29;164.80;;;87.85;;
40867;SDS011;26586;50.708;22.412;2023-02-10T00:03:56;145.73;;;80.72;;
40867;SDS011;26586;50.708;22.412;2023-02-10T00:06:23;168.90;;;84.93;;
40867;SDS011;26586;50.708;22.412;2023-02-10T00:08:52;131.05;;;66.90;;
40867;SDS011;26586;50.708;22.412;2023-02-10T00:11:21;131.63;;;61.75;;
40867;SDS011;26586;50.708;22.412;2023-02-10T00:14:10;134.02;;;64.03;;
40867;SDS011;26586;50.708;22.412;2023-02-10T00:16:41;124.68;;;60.78;;
40867;SDS011;26586;50.708;22.412;2023-02-10T00:19:07;114.88;;;57.35;;
40867;SDS011;26586;50.708;22.412;2023-02-10T00:21:33;96.43;;;48.08;;
40867;SDS011;26586;50.708;22.412;2023-02-10T00:24:00;91.47;;;44.20;;
40867;SDS011;26586;50.708;22.412;2023-02-10T00:26:27;74.95;;;39.80;;
40867;SDS011;26586;50.708;22.412;2023-02-10T00:28:53;66.57;;;36.78;;
40867;SDS011;26586;50.708;22.412;2023-02-10T00:31:19;64.65;;;36.33;;
40867;SDS011;26586;50.708;22.412;2023-02-10T00:33:47;82.10;;;40.17;;
40867;SDS011;26586;50.708;22.412;2023-02-10T00:36:14;75.32;;;39.97;;
40867;SDS011;26586;50.708;22.412;2023-02-10T00:38:41;69.95;;;39.47;;
40867;SDS011;26586;50.708;22.412;2023-02-10T00:41:09;78.60;;;40.75;;
40867;SDS011;26586;50.708;22.412;2023-02-10T00:43:45;89.10;;;46.45;;
40867;SDS011;26586;50.708;22.412;2023-02-10T00:46:12;80.83;;;46.20;;
40867;SDS011;26586;50.708;22.412;2023-02-10T00:48:40;80.88;;;42.75;;
40867;SDS011;26586;50.708;22.412;2023-02-10T00:51:07;77.97;;;42.75;;
40867;SDS011;26586;50.708;22.412;2023-02-10T00:53:34;116.85;;;56.42;;
40867;SDS011;26586;50.708;22.412;2023-02-10T00:56:00;136.32;;;63.25;;
40867;SDS011;26586;50.708;22.412;2023-02-10T00:58:26;160.23;;;70.65;;
40867;SDS011;26586;50.708;22.412;2023-02-10T01:00:53;137.50;;;65.37;;
40867;SDS011;26586;50.708;22.412;2023-02-10T01:03:20;106.35;;;50.22;;
40867;SDS011;26586;50.708;22.412;2023-02-10T01:05:47;97.38;;;47.58;;
40867;SDS011;26586;50.708;22.412;2023-02-10T01:08:13;124.88;;;55.75;;
40867;SDS011;26586;50.708;22.412;2023-02-10T01:10:40;123.85;;;56.83;;
40867;SDS011;26586;50.708;22.412;2023-02-10T01:13:07;97.33;;;46.63;;
40867;SDS011;26586;50.708;22.412;2023-02-10T01:15:34;69.30;;;36.53;;
40867;SDS011;26586;50.708;22.412;2023-02-10T01:18:00;68.40;;;37.22;;
40867;SDS011;26586;50.708;22.412;2023-02-10T01:20:27;72.30;;;40.70;;
40867;SDS011;26586;50.708;22.412;2023-02-10T01:22:53;70.90;;;38.17;;
40867;SDS011;26586;50.708;22.412;2023-02-10T01:25:19;70.80;;;38.53;;
40867;SDS011;26586;50.708;22.412;2023-02-10T01:27:45;60.38;;;34.58;;
40867;SDS011;26586;50.708;22.412;2023-02-10T01:30:12;59.90;;;33.78;;
40867;SDS011;26586;50.708;22.412;2023-02-10T01:32:38;41.47;;;23.95;;
40867;SDS011;26586;50.708;22.412;2023-02-10T01:35:05;36.92;;;21.77;;
40867;SDS011;26586;50.708;22.412;2023-02-10T01:37:32;37.85;;;21.75;;
40867;SDS011;26586;50.708;22.412;2023-02-10T01:40:02;34.58;;;20.77;;
40867;SDS011;26586;50.708;22.412;2023-02-10T01:42:28;34.90;;;21.87;;
40867;SDS011;26586;50.708;22.412;2023-02-10T01:47:46;31.17;;;18.65;;
40867;SDS011;26586;50.708;22.412;2023-02-10T01:50:15;31.67;;;18.48;;
40867;SDS011;26586;50.708;22.412;2023-02-10T01:55:10;23.52;;;14.23;;
40867;SDS011;26586;50.708;22.412;2023-02-10T01:57:40;21.77;;;13.32;;
40867;SDS011;26586;50.708;22.412;2023-02-10T02:00:09;23.73;;;15.02;;
40867;SDS011;26586;50.708;22.412;2023-02-10T02:02:37;23.15;;;15.43;;
40867;SDS011;26586;50.708;22.412;2023-02-10T02:05:04;27.73;;;17.30;;
40867;SDS011;26586;50.708;22.412;2023-02-10T02:07:33;32.42;;;20.25;;
40867;SDS011;26586;50.708;22.412;2023-02-10T02:10:03;36.40;;;20.63;;
40867;SDS011;26586;50.708;22.412;2023-02-10T02:15:37;43.20;;;23.63;;
40867;SDS011;26586;50.708;22.412;2023-02-10T02:34:40;46.38;;;21.80;;
40867;SDS011;26586;50.708;22.412;2023-02-10T02:39:44;28.50;;;17.38;;
40867;SDS011;26586;50.708;22.412;2023-02-10T02:42:25;27.52;;;15.32;;
40867;SDS011;26586;50.708;22.412;2023-02-10T02:50:09;22.92;;;13.30;;
40867;SDS011;26586;50.708;22.412;2023-02-10T02:52:47;31.17;;;17.33;;
40867;SDS011;26586;50.708;22.412;2023-02-10T02:59:04;39.72;;;20.70;;
40867;SDS011;26586;50.708;22.412;2023-02-10T03:01:06;37.42;;;20.50;;
40867;SDS011;26586;50.708;22.412;2023-02-10T03:03:36;41.55;;;20.85;;
40867;SDS011;26586;50.708;22.412;2023-02-10T03:06:02;39.13;;;23.17;;
40867;SDS011;26586;50.708;22.412;2023-02-10T03:08:30;35.10;;;21.08;;
40867;SDS011;26586;50.708;22.412;2023-02-10T03:10:58;31.17;;;16.70;;
40867;SDS011;26586;50.708;22.412;2023-02-10T03:13:25;42.60;;;23.57;;
40867;SDS011;26586;50.708;22.412;2023-02-10T03:15:51;40.90;;;25.77;;
40867;SDS011;26586;50.708;22.412;2023-02-10T03:18:17;30.77;;;20.20;;
40867;SDS011;26586;50.708;22.412;2023-02-10T03:20:43;31.48;;;16.63;;
40867;SDS011;26586;50.708;22.412;2023-02-10T03:23:10;28.15;;;14.38;;
40867;SDS011;26586;50.708;22.412;2023-02-10T03:25:36;27.30;;;14.00;;
40867;SDS011;26586;50.708;22.412;2023-02-10T03:28:03;20.00;;;11.35;;
40867;SDS011;26586;50.708;22.412;2023-02-10T03:30:30;187.18;;;78.80;;
40867;SDS011;26586;50.708;22.412;2023-02-10T03:32:57;19.55;;;11.55;;
40867;SDS011;26586;50.708;22.412;2023-02-10T03:35:23;45.17;;;23.98;;
40867;SDS011;26586;50.708;22.412;2023-02-10T03:37:50;19.45;;;11.32;;
40867;SDS011;26586;50.708;22.412;2023-02-10T03:40:16;13.23;;;8.85;;
40867;SDS011;26586;50.708;22.412;2023-02-10T03:42:42;15.97;;;9.00;;
40867;SDS011;26586;50.708;22.412;2023-02-10T03:45:08;15.45;;;9.23;;
40867;SDS011;26586;50.708;22.412;2023-02-10T03:47:35;79.97;;;32.10;;
40867;SDS011;26586;50.708;22.412;2023-02-10T03:50:01;30.88;;;17.95;;
40867;SDS011;26586;50.708;22.412;2023-02-10T03:52:27;67.13;;;29.98;;
40867;SDS011;26586;50.708;22.412;2023-02-10T03:54:53;72.25;;;32.85;;
40867;SDS011;26586;50.708;22.412;2023-02-10T03:57:19;22.70;;;12.43;;
40867;SDS011;26586;50.708;22.412;2023-02-10T03:59:45;16.33;;;8.80;;
40867;SDS011;26586;50.708;22.412;2023-02-10T04:02:12;23.95;;;15.48;;
40867;SDS011;26586;50.708;22.412;2023-02-10T04:04:38;27.88;;;15.45;;
40867;SDS011;26586;50.708;22.412;2023-02-10T04:07:04;12.97;;;8.77;;
40867;SDS011;26586;50.708;22.412;2023-02-10T04:09:30;13.55;;;7.60;;
40867;SDS011;26586;50.708;22.412;2023-02-10T04:11:57;10.73;;;7.47;;
40867;SDS011;26586;50.708;22.412;2023-02-10T04:14:23;14.57;;;8.35;;
40867;SDS011;26586;50.708;22.412;2023-02-10T04:16:49;23.40;;;12.63;;
40867;SDS011;26586;50.708;22.412;2023-02-10T04:19:15;11.82;;;8.15;;
40867;SDS011;26586;50.708;22.412;2023-02-10T04:21:41;12.55;;;7.90;;
40867;SDS011;26586;50.708;22.412;2023-02-10T04:24:07;15.40;;;9.52;;
40867;SDS011;26586;50.708;22.412;2023-02-10T04:26:34;15.32;;;8.30;;
40867;SDS011;26586;50.708;22.412;2023-02-10T04:29:00;16.48;;;8.00;;
40867;SDS011;26586;50.708;22.412;2023-02-10T04:31:26;153.02;;;53.15;;
40867;SDS011;26586;50.708;22.412;2023-02-10T04:33:52;58.60;;;23.60;;
40867;SDS011;26586;50.708;22.412;2023-02-10T04:36:18;231.93;;;94.65;;
40867;SDS011;26586;50.708;22.412;2023-02-10T04:38:45;86.88;;;41.08;;
40867;SDS011;26586;50.708;22.412;2023-02-10T04:41:11;68.15;;;31.33;;
40867;SDS011;26586;50.708;22.412;2023-02-10T04:43:37;30.23;;;17.08;;
40867;SDS011;26586;50.708;22.412;2023-02-10T04:46:03;80.70;;;32.88;;
40867;SDS011;26586;50.708;22.412;2023-02-10T04:48:29;64.50;;;27.33;;
40867;SDS011;26586;50.708;22.412;2023-02-10T04:50:56;257.30;;;117.15;;
40867;SDS011;26586;50.708;22.412;2023-02-10T04:53:22;249.10;;;86.60;;
40867;SDS011;26586;50.708;22.412;2023-02-10T04:55:49;389.45;;;110.80;;
40867;SDS011;26586;50.708;22.412;2023-02-10T04:58:15;114.97;;;39.42;;
40867;SDS011;26586;50.708;22.412;2023-02-10T05:00:42;109.38;;;42.85;;
40867;SDS011;26586;50.708;22.412;2023-02-10T05:03:08;25.13;;;14.52;;
40867;SDS011;26586;50.708;22.412;2023-02-10T05:05:35;117.78;;;44.10;;
40867;SDS011;26586;50.708;22.412;2023-02-10T05:08:01;146.93;;;58.83;;
40867;SDS011;26586;50.708;22.412;2023-02-10T05:10:27;69.95;;;29.77;;
40867;SDS011;26586;50.708;22.412;2023-02-10T05:12:53;35.47;;;19.42;;
40867;SDS011;26586;50.708;22.412;2023-02-10T05:15:19;31.33;;;16.95;;
40867;SDS011;26586;50.708;22.412;2023-02-10T05:17:45;36.15;;;17.75;;
40867;SDS011;26586;50.708;22.412;2023-02-10T05:20:12;34.92;;;18.02;;
40867;SDS011;26586;50.708;22.412;2023-02-10T05:22:38;88.13;;;37.08;;
40867;SDS011;26586;50.708;22.412;2023-02-10T05:25:06;75.72;;;32.10;;
40867;SDS011;26586;50.708;22.412;2023-02-10T05:27:32;75.85;;;34.55;;
40867;SDS011;26586;50.708;22.412;2023-02-10T05:29:59;191.88;;;77.28;;
40867;SDS011;26586;50.708;22.412;2023-02-10T05:32:25;74.47;;;35.47;;
40867;SDS011;26586;50.708;22.412;2023-02-10T05:34:51;107.90;;;47.00;;
40867;SDS011;26586;50.708;22.412;2023-02-10T05:37:18;177.95;;;74.63;;
40867;SDS011;26586;50.708;22.412;2023-02-10T05:39:44;86.50;;;40.35;;
40867;SDS011;26586;50.708;22.412;2023-02-10T05:42:10;41.88;;;20.00;;
40867;SDS011;26586;50.708;22.412;2023-02-10T05:44:36;52.40;;;25.75;;
40867;SDS011;26586;50.708;22.412;2023-02-10T05:47:02;34.45;;;18.48;;
40867;SDS011;26586;50.708;22.412;2023-02-10T05:49:29;22.97;;;16.90;;
40867;SDS011;26586;50.708;22.412;2023-02-10T05:51:55;20.10;;;11.70;;
40867;SDS011;26586;50.708;22.412;2023-02-10T05:54:21;25.20;;;12.73;;
40867;SDS011;26586;50.708;22.412;2023-02-10T05:56:47;20.55;;;10.88;;
40867;SDS011;26586;50.708;22.412;2023-02-10T05:59:16;32.85;;;19.08;;
40867;SDS011;26586;50.708;22.412;2023-02-10T06:01:42;23.23;;;13.02;;
40867;SDS011;26586;50.708;22.412;2023-02-10T06:04:09;14.80;;;9.65;;
40867;SDS011;26586;50.708;22.412;2023-02-10T06:06:35;65.73;;;32.60;;
40867;SDS011;26586;50.708;22.412;2023-02-10T06:09:01;22.83;;;13.63;;
40867;SDS011;26586;50.708;22.412;2023-02-10T06:11:28;20.10;;;12.00;;
40867;SDS011;26586;50.708;22.412;2023-02-10T06:13:54;17.08;;;10.68;;
40867;SDS011;26586;50.708;22.412;2023-02-10T06:16:20;39.05;;;22.30;;
40867;SDS011;26586;50.708;22.412;2023-02-10T06:18:47;47.97;;;30.87;;
40867;SDS011;26586;50.708;22.412;2023-02-10T06:21:14;18.80;;;11.65;;
40867;SDS011;26586;50.708;22.412;2023-02-10T06:23:41;15.93;;;8.85;;
40867;SDS011;26586;50.708;22.412;2023-02-10T06:26:07;16.52;;;10.68;;
40867;SDS011;26586;50.708;22.412;2023-02-10T06:28:34;15.98;;;10.20;;
40867;SDS011;26586;50.708;22.412;2023-02-10T06:31:00;14.77;;;8.35;;
40867;SDS011;26586;50.708;22.412;2023-02-10T06:33:26;14.43;;;9.27;;
40867;SDS011;26586;50.708;22.412;2023-02-10T06:35:52;13.00;;;8.25;;
40867;SDS011;26586;50.708;22.412;2023-02-10T06:38:19;12.57;;;8.57;;
40867;SDS011;26586;50.708;22.412;2023-02-10T06:40:45;17.33;;;10.13;;
40867;SDS011;26586;50.708;22.412;2023-02-10T06:43:11;14.90;;;9.43;;
40867;SDS011;26586;50.708;22.412;2023-02-10T06:45:37;23.83;;;12.35;;
40867;SDS011;26586;50.708;22.412;2023-02-10T06:48:04;18.00;;;11.07;;
40867;SDS011;26586;50.708;22.412;2023-02-10T06:50:30;17.52;;;9.65;;
40867;SDS011;26586;50.708;22.412;2023-02-10T06:52:56;16.75;;;10.98;;
40867;SDS011;26586;50.708;22.412;2023-02-10T06:55:23;16.80;;;8.75;;
40867;SDS011;26586;50.708;22.412;2023-02-10T06:57:49;16.93;;;10.37;;
40867;SDS011;26586;50.708;22.412;2023-02-10T07:00:15;17.30;;;11.85;;
40867;SDS011;26586;50.708;22.412;2023-02-10T07:02:42;18.40;;;11.53;;
40867;SDS011;26586;50.708;22.412;2023-02-10T07:05:09;17.40;;;10.47;;
40867;SDS011;26586;50.708;22.412;2023-02-10T07:07:36;15.60;;;9.07;;
40867;SDS011;26586;50.708;22.412;2023-02-10T07:10:03;13.63;;;9.10;;
40867;SDS011;26586;50.708;22.412;2023-02-10T07:12:30;14.15;;;9.63;;
40867;SDS011;26586;50.708;22.412;2023-02-10T07:14:56;14.88;;;8.15;;
40867;SDS011;26586;50.708;22.412;2023-02-10T07:17:22;12.93;;;9.30;;
40867;SDS011;26586;50.708;22.412;2023-02-10T07:19:48;13.18;;;8.60;;
40867;SDS011;26586;50.708;22.412;2023-02-10T07:22:15;16.15;;;10.40;;
40867;SDS011;26586;50.708;22.412;2023-02-10T07:24:41;16.77;;;10.73;;
40867;SDS011;26586;50.708;22.412;2023-02-10T07:27:07;17.63;;;11.95;;
40867;SDS011;26586;50.708;22.412;2023-02-10T07:29:33;15.68;;;8.95;;
40867;SDS011;26586;50.708;22.412;2023-02-10T07:32:00;13.65;;;9.02;;
40867;SDS011;26586;50.708;22.412;2023-02-10T07:34:26;13.88;;;8.88;;
40867;SDS011;26586;50.708;22.412;2023-02-10T07:36:55;12.15;;;7.93;;
40867;SDS011;26586;50.708;22.412;2023-02-10T07:39:22;14.32;;;9.52;;
40867;SDS011;26586;50.708;22.412;2023-02-10T07:44:15;16.15;;;9.85;;
40867;SDS011;26586;50.708;22.412;2023-02-10T07:46:42;15.10;;;8.48;;
40867;SDS011;26586;50.708;22.412;2023-02-10T07:49:08;13.98;;;7.47;;
40867;SDS011;26586;50.708;22.412;2023-02-10T07:51:35;13.68;;;8.25;;
40867;SDS011;26586;50.708;22.412;2023-02-10T07:54:01;18.73;;;9.10;;
40867;SDS011;26586;50.708;22.412;2023-02-10T07:56:28;16.17;;;10.60;;
40867;SDS011;26586;50.708;22.412;2023-02-10T07:58:55;15.57;;;9.20;;
40867;SDS011;26586;50.708;22.412;2023-02-10T08:03:47;16.85;;;9.38;;
40867;SDS011;26586;50.708;22.412;2023-02-10T08:06:18;15.38;;;9.25;;
40867;SDS011;26586;50.708;22.412;2023-02-10T08:08:48;11.85;;;8.20;;
40867;SDS011;26586;50.708;22.412;2023-02-10T08:11:15;16.88;;;9.23;;
40867;SDS011;26586;50.708;22.412;2023-02-10T08:13:41;15.63;;;9.50;;
40867;SDS011;26586;50.708;22.412;2023-02-10T08:16:08;15.82;;;10.05;;
40867;SDS011;26586;50.708;22.412;2023-02-10T08:18:39;14.57;;;8.43;;
40867;SDS011;26586;50.708;22.412;2023-02-10T08:21:06;16.75;;;11.05;;
40867;SDS011;26586;50.708;22.412;2023-02-10T08:23:33;14.63;;;8.15;;
40867;SDS011;26586;50.708;22.412;2023-02-10T08:26:04;13.32;;;9.10;;
40867;SDS011;26586;50.708;22.412;2023-02-10T08:28:34;14.40;;;7.65;;
40867;SDS011;26586;50.708;22.412;2023-02-10T08:31:03;16.48;;;10.02;;
40867;SDS011;26586;50.708;22.412;2023-02-10T08:33:33;16.17;;;9.07;;
40867;SDS011;26586;50.708;22.412;2023-02-10T08:36:03;16.60;;;9.48;;
40867;SDS011;26586;50.708;22.412;2023-02-10T08:38:34;18.27;;;9.95;;
40867;SDS011;26586;50.708;22.412;2023-02-10T08:41:01;16.40;;;9.70;;
40867;SDS011;26586;50.708;22.412;2023-02-10T08:43:27;13.80;;;9.25;;
40867;SDS011;26586;50.708;22.412;2023-02-10T08:45:55;12.52;;;8.00;;
40867;SDS011;26586;50.708;22.412;2023-02-10T08:48:22;13.73;;;8.30;;
40867;SDS011;26586;50.708;22.412;2023-02-10T08:50:49;14.93;;;9.50;;
40867;SDS011;26586;50.708;22.412;2023-02-10T08:53:15;14.40;;;8.60;;
40867;SDS011;26586;50.708;22.412;2023-02-10T08:55:42;17.70;;;8.85;;
40867;SDS011;26586;50.708;22.412;2023-02-10T08:58:10;11.93;;;6.70;;
40867;SDS011;26586;50.708;22.412;2023-02-10T09:00:39;18.35;;;10.57;;
40867;SDS011;26586;50.708;22.412;2023-02-10T09:03:05;17.08;;;10.02;;
40867;SDS011;26586;50.708;22.412;2023-02-10T09:05:34;15.63;;;10.30;;
40867;SDS011;26586;50.708;22.412;2023-02-10T09:08:01;12.40;;;8.25;;
40867;SDS011;26586;50.708;22.412;2023-02-10T09:10:29;15.57;;;9.48;;
40867;SDS011;26586;50.708;22.412;2023-02-10T09:12:55;19.25;;;9.50;;
40867;SDS011;26586;50.708;22.412;2023-02-10T09:15:21;17.50;;;8.73;;
40867;SDS011;26586;50.708;22.412;2023-02-10T09:17:47;17.00;;;8.75;;
40867;SDS011;26586;50.708;22.412;2023-02-10T09:20:14;20.60;;;8.15;;
40867;SDS011;26586;50.708;22.412;2023-02-10T09:22:40;14.68;;;9.18;;
40867;SDS011;26586;50.708;22.412;2023-02-10T09:25:06;23.92;;;10.35;;
40867;SDS011;26586;50.708;22.412;2023-02-10T09:27:32;17.58;;;9.50;;
40867;SDS011;26586;50.708;22.412;2023-02-10T09:30:01;21.15;;;9.68;;
40867;SDS011;26586;50.708;22.412;2023-02-10T09:32:27;19.80;;;10.80;;
40867;SDS011;26586;50.708;22.412;2023-02-10T09:34:54;15.27;;;9.45;;
40867;SDS011;26586;50.708;22.412;2023-02-10T09:37:21;15.30;;;8.77;;
40867;SDS011;26586;50.708;22.412;2023-02-10T09:39:47;21.67;;;10.98;;
40867;SDS011;26586;50.708;22.412;2023-02-10T09:45:15;12.50;;;8.88;;
40867;SDS011;26586;50.708;22.412;2023-02-10T09:47:51;17.05;;;9.57;;
40867;SDS011;26586;50.708;22.412;2023-02-10T09:53:28;17.50;;;10.43;;
40867;SDS011;26586;50.708;22.412;2023-02-10T09:55:57;12.77;;;8.18;;
40867;SDS011;26586;50.708;22.412;2023-02-10T09:58:40;17.10;;;9.77;;
40867;SDS011;26586;50.708;22.412;2023-02-10T10:01:15;19.00;;;8.77;;
40867;SDS011;26586;50.708;22.412;2023-02-10T10:03:58;13.85;;;9.23;;
40867;SDS011;26586;50.708;22.412;2023-02-10T10:06:38;23.27;;;12.85;;
40867;SDS011;26586;50.708;22.412;2023-02-10T10:14:16;20.00;;;12.18;;
40867;SDS011;26586;50.708;22.412;2023-02-10T10:28:47;18.95;;;9.63;;
40867;SDS011;26586;50.708;22.412;2023-02-10T10:31:24;18.02;;;10.52;;
40867;SDS011;26586;50.708;22.412;2023-02-10T10:36:34;15.00;;;9.20;;
40867;SDS011;26586;50.708;22.412;2023-02-10T10:41:56;23.02;;;12.73;;
40867;SDS011;26586;50.708;22.412;2023-02-10T10:44:25;28.50;;;16.17;;
40867;SDS011;26586;50.708;22.412;2023-02-10T10:47:11;24.25;;;13.32;;
40867;SDS011;26586;50.708;22.412;2023-02-10T10:49:45;28.08;;;15.68;;
40867;SDS011;26586;50.708;22.412;2023-02-10T10:52:33;26.65;;;15.77;;
40867;SDS011;26586;50.708;22.412;2023-02-10T10:55:24;25.27;;;14.63;;
40867;SDS011;26586;50.708;22.412;2023-02-10T10:57:52;22.45;;;11.25;;
40867;SDS011;26586;50.708;22.412;2023-02-10T11:03:02;14.82;;;8.95;;
40867;SDS011;26586;50.708;22.412;2023-02-10T11:05:33;17.08;;;12.57;;
40867;SDS011;26586;50.708;22.412;2023-02-10T11:08:04;16.95;;;10.60;;
40867;SDS011;26586;50.708;22.412;2023-02-10T11:10:49;12.93;;;8.65;;
40867;SDS011;26586;50.708;22.412;2023-02-10T11:13:26;19.92;;;11.50;;
40867;SDS011;26586;50.708;22.412;2023-02-10T11:16:03;15.95;;;10.02;;
40867;SDS011;26586;50.708;22.412;2023-02-10T11:18:32;17.97;;;10.67;;
40867;SDS011;26586;50.708;22.412;2023-02-10T11:26:23;24.02;;;12.60;;
40867;SDS011;26586;50.708;22.412;2023-02-10T11:28:51;27.75;;;16.17;;
40867;SDS011;26586;50.708;22.412;2023-02-10T11:31:33;25.38;;;14.77;;
40867;SDS011;26586;50.708;22.412;2023-02-10T11:34:03;32.80;;;18.50;;
40867;SDS011;26586;50.708;22.412;2023-02-10T11:36:43;32.15;;;18.02;;
40867;SDS011;26586;50.708;22.412;2023-02-10T11:39:31;24.35;;;14.80;;
40867;SDS011;26586;50.708;22.412;2023-02-10T11:42:10;26.60;;;15.43;;
40867;SDS011;26586;50.708;22.412;2023-02-10T11:44:41;21.58;;;13.48;;
40867;SDS011;26586;50.708;22.412;2023-02-10T11:47:14;29.13;;;16.48;;
40867;SDS011;26586;50.708;22.412;2023-02-10T11:49:45;28.95;;;14.65;;
40867;SDS011;26586;50.708;22.412;2023-02-10T11:52:13;26.80;;;14.50;;
40867;SDS011;26586;50.708;22.412;2023-02-10T11:54:39;30.77;;;13.38;;
40867;SDS011;26586;50.708;22.412;2023-02-10T12:03:26;25.30;;;13.10;;
40867;SDS011;26586;50.708;22.412;2023-02-10T12:06:16;20.63;;;12.00;;
40867;SDS011;26586;50.708;22.412;2023-02-10T12:11:49;23.75;;;11.75;;
40867;SDS011;26586;50.708;22.412;2023-02-10T12:25:32;21.00;;;14.23;;
40867;SDS011;26586;50.708;22.412;2023-02-10T12:28:19;25.85;;;14.65;;
40867;SDS011;26586;50.708;22.412;2023-02-10T12:39:29;33.78;;;16.63;;
40867;SDS011;26586;50.708;22.412;2023-02-10T12:45:03;22.50;;;11.02;;
40867;SDS011;26586;50.708;22.412;2023-02-10T12:47:46;17.98;;;10.90;;
40867;SDS011;26586;50.708;22.412;2023-02-10T12:53:07;47.60;;;26.50;;
40867;SDS011;26586;50.708;22.412;2023-02-10T12:58:29;19.92;;;13.43;;
40867;SDS011;26586;50.708;22.412;2023-02-10T13:01:08;21.27;;;13.40;;
40867;SDS011;26586;50.708;22.412;2023-02-10T13:03:49;24.27;;;14.85;;
40867;SDS011;26586;50.708;22.412;2023-02-10T13:06:27;22.63;;;13.50;;
40867;SDS011;26586;50.708;22.412;2023-02-10T13:14:41;21.65;;;12.63;;
40867;SDS011;26586;50.708;22.412;2023-02-10T13:17:09;17.80;;;10.73;;
40867;SDS011;26586;50.708;22.412;2023-02-10T13:19:43;22.08;;;12.75;;
40867;SDS011;26586;50.708;22.412;2023-02-10T13:22:22;20.90;;;12.57;;
40867;SDS011;26586;50.708;22.412;2023-02-10T13:25:14;17.67;;;10.73;;
40867;SDS011;26586;50.708;22.412;2023-02-10T13:33:26;18.70;;;10.55;;
40867;SDS011;26586;50.708;22.412;2023-02-10T13:36:17;16.80;;;10.57;;
40867;SDS011;26586;50.708;22.412;2023-02-10T13:38:57;27.83;;;15.07;;
40867;SDS011;26586;50.708;22.412;2023-02-10T13:41:39;33.75;;;20.10;;
40867;SDS011;26586;50.708;22.412;2023-02-10T13:49:23;31.55;;;15.93;;
40867;SDS011;26586;50.708;22.412;2023-02-10T13:51:58;15.25;;;9.93;;
40867;SDS011;26586;50.708;22.412;2023-02-10T13:54:29;19.60;;;13.18;;
40867;SDS011;26586;50.708;22.412;2023-02-10T13:56:58;15.18;;;9.18;;
40867;SDS011;26586;50.708;22.412;2023-02-10T13:59:26;17.73;;;9.45;;
40867;SDS011;26586;50.708;22.412;2023-02-10T14:04:40;16.13;;;8.88;;
40867;SDS011;26586;50.708;22.412;2023-02-10T14:07:28;16.30;;;10.35;;
40867;SDS011;26586;50.708;22.412;2023-02-10T14:12:54;28.25;;;15.70;;
40867;SDS011;26586;50.708;22.412;2023-02-10T14:15:30;23.17;;;13.23;;
40867;SDS011;26586;50.708;22.412;2023-02-10T14:20:28;24.52;;;14.48;;
40867;SDS011;26586;50.708;22.412;2023-02-10T14:22:57;20.63;;;11.45;;
40867;SDS011;26586;50.708;22.412;2023-02-10T14:28:06;26.77;;;14.15;;
40867;SDS011;26586;50.708;22.412;2023-02-10T14:30:44;17.00;;;10.35;;
40867;SDS011;26586;50.708;22.412;2023-02-10T14:33:28;23.05;;;11.27;;
40867;SDS011;26586;50.708;22.412;2023-02-10T14:35:57;19.92;;;12.02;;
40867;SDS011;26586;50.708;22.412;2023-02-10T14:38:29;16.27;;;10.10;;
40867;SDS011;26586;50.708;22.412;2023-02-10T14:40:58;20.05;;;12.00;;
40867;SDS011;26586;50.708;22.412;2023-02-10T14:43:29;21.13;;;11.02;;
40867;SDS011;26586;50.708;22.412;2023-02-10T14:45:57;19.40;;;12.55;;
40867;SDS011;26586;50.708;22.412;2023-02-10T14:48:26;19.65;;;11.65;;
40867;SDS011;26586;50.708;22.412;2023-02-10T14:51:01;14.90;;;9.35;;
40867;SDS011;26586;50.708;22.412;2023-02-10T14:55:57;18.00;;;10.15;;
40867;SDS011;26586;50.708;22.412;2023-02-10T14:58:25;25.08;;;16.85;;
40867;SDS011;26586;50.708;22.412;2023-02-10T15:01:00;20.98;;;14.02;;
40867;SDS011;26586;50.708;22.412;2023-02-10T15:03:33;19.85;;;12.23;;
40867;SDS011;26586;50.708;22.412;2023-02-10T15:05:59;22.88;;;13.25;;
40867;SDS011;26586;50.708;22.412;2023-02-10T15:08:31;22.05;;;12.52;;
40867;SDS011;26586;50.708;22.412;2023-02-10T15:11:26;26.42;;;13.75;;
40867;SDS011;26586;50.708;22.412;2023-02-10T15:14:19;31.33;;;17.08;;
40867;SDS011;26586;50.708;22.412;2023-02-10T15:16:49;27.25;;;15.07;;
40867;SDS011;26586;50.708;22.412;2023-02-10T15:19:17;26.92;;;14.38;;
40867;SDS011;26586;50.708;22.412;2023-02-10T15:21:45;21.55;;;13.25;;
40867;SDS011;26586;50.708;22.412;2023-02-10T15:24:19;26.60;;;15.23;;
40867;SDS011;26586;50.708;22.412;2023-02-10T15:26:47;39.33;;;21.88;;
40867;SDS011;26586;50.708;22.412;2023-02-10T15:29:14;32.45;;;21.45;;
40867;SDS011;26586;50.708;22.412;2023-02-10T15:31:41;47.30;;;25.73;;
40867;SDS011;26586;50.708;22.412;2023-02-10T15:34:26;30.10;;;16.13;;
40867;SDS011;26586;50.708;22.412;2023-02-10T15:37:01;31.52;;;18.25;;
40867;SDS011;26586;50.708;22.412;2023-02-10T15:39:34;30.63;;;17.25;;
40867;SDS011;26586;50.708;22.412;2023-02-10T15:42:05;32.33;;;18.48;;
40867;SDS011;26586;50.708;22.412;2023-02-10T15:44:46;33.90;;;20.77;;
40867;SDS011;26586;50.708;22.412;2023-02-10T15:49:43;65.78;;;37.40;;
40867;SDS011;26586;50.708;22.412;2023-02-10T15:52:18;35.05;;;20.13;;
40867;SDS011;26586;50.708;22.412;2023-02-10T15:54:46;38.05;;;24.23;;
40867;SDS011;26586;50.708;22.412;2023-02-10T15:57:17;31.92;;;21.83;;
40867;SDS011;26586;50.708;22.412;2023-02-10T15:59:44;24.20;;;15.68;;
40867;SDS011;26586;50.708;22.412;2023-02-10T16:02:16;31.92;;;17.35;;
40867;SDS011;26586;50.708;22.412;2023-02-10T16:04:43;34.17;;;19.13;;
40867;SDS011;26586;50.708;22.412;2023-02-10T16:07:21;35.13;;;19.10;;
40867;SDS011;26586;50.708;22.412;2023-02-10T16:09:52;30.60;;;19.00;;
40867;SDS011;26586;50.708;22.412;2023-02-10T16:12:19;32.70;;;16.27;;
40867;SDS011;26586;50.708;22.412;2023-02-10T16:14:46;39.25;;;20.75;;
40867;SDS011;26586;50.708;22.412;2023-02-10T16:17:15;40.60;;;20.90;;
40867;SDS011;26586;50.708;22.412;2023-02-10T16:19:46;54.47;;;24.83;;
40867;SDS011;26586;50.708;22.412;2023-02-10T16:22:12;46.03;;;25.02;;
40867;SDS011;26586;50.708;22.412;2023-02-10T16:24:39;67.07;;;32.60;;
40867;SDS011;26586;50.708;22.412;2023-02-10T16:27:05;52.42;;;24.58;;
40867;SDS011;26586;50.708;22.412;2023-02-10T16:29:32;47.17;;;26.42;;
40867;SDS011;26586;50.708;22.412;2023-02-10T16:31:58;33.35;;;19.63;;
40867;SDS011;26586;50.708;22.412;2023-02-10T16:34:25;35.33;;;23.10;;
40867;SDS011;26586;50.708;22.412;2023-02-10T16:36:55;30.25;;;18.90;;
40867;SDS011;26586;50.708;22.412;2023-02-10T16:39:23;25.27;;;14.63;;
40867;SDS011;26586;50.708;22.412;2023-02-10T16:41:50;24.13;;;13.45;;
40867;SDS011;26586;50.708;22.412;2023-02-10T16:44:17;30.08;;;15.45;;
40867;SDS011;26586;50.708;22.412;2023-02-10T16:46:44;32.85;;;19.10;;
40867;SDS011;26586;50.708;22.412;2023-02-10T16:49:13;44.22;;;22.33;;
40867;SDS011;26586;50.708;22.412;2023-02-10T16:51:41;32.45;;;17.95;;